Time;durP1;ratioP1;P1;durP2;ratioP2;P2;SDS_P1;SDS_P2;PMS_P1;PMS_P2;Temp;Humidity;BMP_temperature;BMP_pressure;BME280_temperature;BME280_humidity;BME280_pressure;Samples;Min_cycle;Max_cycle;Signal;HPM_P1;HPM_P2
2022/01/26 00:07:51;;;;;;;47.07;21.10;;;2.50;99.90;;;;;;5053455;28;20432;-59
2022/01/26 00:10:18;;;;;;;44.77;21.57;;;2.50;99.90;;;;;;5053754;28;20827;-60
2022/01/26 00:12:45;;;;;;;49.23;22.73;;;2.60;99.90;;;;;;5053355;28;20498;-58
2022/01/26 00:15:11;;;;;;;61.27;25.43;;;2.70;99.90;;;;;;5053499;28;20205;-60
2022/01/26 00:17:38;;;;;;;64.77;25.57;;;2.60;99.90;;;;;;5053095;28;20447;-60
2022/01/26 00:20:15;;;;;;;63.20;25.90;;;2.70;99.90;;;;;;5053207;28;20444;-60
2022/01/26 00:22:55;;;;;;;61.67;26.10;;;2.70;99.90;;;;;;5053434;28;20452;-60
2022/01/26 00:25:34;;;;;;;59.73;26.50;;;2.70;99.90;;;;;;5053216;28;20452;-59
2022/01/26 00:28:20;;;;;;;63.93;25.77;;;2.80;99.90;;;;;;5053117;28;20205;-60
2022/01/26 00:39:02;;;;;;;63.47;25.23;;;2.70;99.90;;;;;;5052927;28;20427;-60
2022/01/26 00:41:34;;;;;;;62.33;26.13;;;2.80;99.90;;;;;;5053515;28;20472;-59
2022/01/26 00:44:02;;;;;;;66.70;26.00;;;2.80;99.90;;;;;;5055790;28;20432;-59
2022/01/26 00:46:29;;;;;;;53.43;25.57;;;2.90;99.90;;;;;;5055292;28;20454;-60
2022/01/26 00:48:56;;;;;;;63.13;27.33;;;2.80;99.90;;;;;;5053569;28;20587;-60
2022/01/26 00:51:24;;;;;;;64.07;26.80;;;2.80;99.90;;;;;;5051854;28;20479;-60
2022/01/26 00:53:58;;;;;;;60.27;25.77;;;2.80;99.90;;;;;;5053268;28;20236;-60
2022/01/26 00:56:25;;;;;;;70.03;27.53;;;2.90;99.90;;;;;;5052580;28;20868;-60
2022/01/26 00:58:52;;;;;;;66.73;26.97;;;2.90;99.90;;;;;;5052939;28;20448;-60
2022/01/26 01:01:18;;;;;;;62.27;25.93;;;2.90;99.90;;;;;;5052975;28;20483;-60
2022/01/26 01:03:47;;;;;;;65.87;27.40;;;2.90;99.90;;;;;;5053246;28;20209;-60
2022/01/26 01:06:20;;;;;;;63.37;26.00;;;2.80;99.90;;;;;;5052530;28;20212;-60
2022/01/26 01:08:48;;;;;;;67.07;27.73;;;2.80;99.90;;;;;;5052471;28;20512;-60
2022/01/26 01:11:15;;;;;;;58.97;26.70;;;2.80;99.90;;;;;;5052197;28;20517;-57
2022/01/26 01:13:43;;;;;;;57.77;26.10;;;2.70;99.90;;;;;;5052674;28;20519;-60
2022/01/26 01:16:15;;;;;;;66.07;27.37;;;2.80;99.90;;;;;;5052017;28;20547;-60
2022/01/26 01:18:46;;;;;;;63.17;25.07;;;2.80;99.90;;;;;;5052580;28;20888;-60
2022/01/26 01:22:01;;;;;;;59.23;23.97;;;2.80;99.90;;;;;;5052903;28;20289;-60
2022/01/26 01:24:52;;;;;;;65.27;25.27;;;2.80;99.90;;;;;;5053181;28;20212;-60
2022/01/26 01:27:38;;;;;;;59.47;25.67;;;2.90;99.90;;;;;;5053227;28;20578;-60
2022/01/26 01:30:10;;;;;;;62.43;25.00;;;2.90;99.90;;;;;;5052625;28;20225;-62
2022/01/26 01:32:49;;;;;;;62.27;26.00;;;2.90;99.90;;;;;;5051829;28;20566;-60
2022/01/26 01:35:16;;;;;;;67.90;25.87;;;2.90;99.90;;;;;;5053102;28;20240;-61
2022/01/26 01:37:43;;;;;;;58.70;24.77;;;3.00;99.90;;;;;;5053090;28;20214;-62
2022/01/26 01:40:12;;;;;;;57.77;24.63;;;3.00;99.90;;;;;;5052998;28;20926;-60
2022/01/26 01:42:39;;;;;;;63.13;25.43;;;2.90;99.90;;;;;;5052105;28;20283;-60
2022/01/26 01:45:08;;;;;;;55.57;24.83;;;2.90;99.90;;;;;;5052725;28;20206;-60
2022/01/26 01:47:35;;;;;;;65.33;26.67;;;2.90;99.90;;;;;;5053043;28;20222;-60
2022/01/26 01:50:03;;;;;;;61.17;25.57;;;2.80;99.90;;;;;;5051838;28;20483;-60
2022/01/26 01:52:30;;;;;;;67.00;26.33;;;2.80;99.90;;;;;;5051934;28;20336;-59
2022/01/26 01:55:02;;;;;;;63.37;27.37;;;2.70;99.90;;;;;;5051785;28;20210;-59
2022/01/26 01:57:31;;;;;;;61.53;24.90;;;2.70;99.90;;;;;;5051629;28;20818;-60
2022/01/26 01:59:58;;;;;;;66.07;26.33;;;2.70;99.90;;;;;;5051482;28;20440;-59
2022/01/26 02:02:24;;;;;;;61.33;26.80;;;2.70;99.90;;;;;;5051827;28;20476;-59
2022/01/26 02:04:51;;;;;;;64.70;27.53;;;2.70;99.90;;;;;;5055821;28;20452;-60
2022/01/26 02:07:18;;;;;;;64.43;26.77;;;2.70;99.90;;;;;;5055673;28;20942;-60
2022/01/26 02:09:44;;;;;;;62.43;24.57;;;2.70;99.90;;;;;;5055750;28;20487;-60
2022/01/26 02:12:17;;;;;;;56.87;24.93;;;2.70;99.90;;;;;;5055689;28;20464;-60
2022/01/26 02:14:50;;;;;;;65.37;25.73;;;2.80;99.90;;;;;;5055382;28;20829;-58
2022/01/26 02:17:30;;;;;;;68.77;26.80;;;2.80;99.90;;;;;;5055721;28;20484;-59
2022/01/26 02:20:22;;;;;;;62.97;26.80;;;2.80;96.30;;;;;;5055757;28;20539;-59
2022/01/26 02:50:56;;;;;;;65.67;26.80;;;2.50;99.90;;;;;;5054860;28;20522;-59
2022/01/26 02:53:41;;;;;;;78.67;27.70;;;2.50;99.90;;;;;;5054811;28;20451;-59
2022/01/26 02:56:17;;;;;;;67.13;26.30;;;2.50;99.90;;;;;;5054912;28;20961;-59
2022/01/26 02:59:02;;;;;;;64.03;27.07;;;2.50;99.90;;;;;;5054902;28;20543;-60
2022/01/26 03:01:50;;;;;;;73.27;27.67;;;2.50;99.90;;;;;;5054838;28;20521;-59
2022/01/26 03:04:26;;;;;;;75.40;29.23;;;2.50;99.90;;;;;;5054602;28;20440;-60
2022/01/26 03:06:59;;;;;;;70.43;29.03;;;2.50;99.90;;;;;;5054495;28;20463;-60
2022/01/26 03:09:30;;;;;;;72.67;26.73;;;2.50;99.90;;;;;;5054508;28;20490;-60
2022/01/26 03:12:00;;;;;;;67.57;28.10;;;2.50;99.90;;;;;;5054828;28;20559;-60
2022/01/26 03:14:36;;;;;;;68.80;27.43;;;2.50;99.90;;;;;;5053302;28;20510;-60
2022/01/26 03:17:11;;;;;;;71.20;28.73;;;2.60;99.90;;;;;;5054360;28;20452;-60
2022/01/26 03:19:41;;;;;;;67.90;26.97;;;2.60;99.90;;;;;;5054559;28;20455;-58
2022/01/26 03:30:51;;;;;;;69.20;27.10;;;2.30;99.90;;;;;;5054145;28;20479;-59
2022/01/26 03:33:45;;;;;;;75.50;29.43;;;2.30;99.90;;;;;;5054052;28;20549;-59
2022/01/26 03:36:12;;;;;;;73.90;29.53;;;2.20;99.90;;;;;;5053699;28;20854;-60
2022/01/26 03:38:43;;;;;;;70.17;29.13;;;2.20;99.90;;;;;;5054157;28;20483;-59
2022/01/26 03:41:16;;;;;;;71.13;28.50;;;2.10;99.90;;;;;;5054089;28;20478;-60
2022/01/26 03:43:44;;;;;;;75.57;30.47;;;2.20;99.90;;;;;;5054074;28;20452;-60
2022/01/26 03:46:11;;;;;;;71.27;28.50;;;2.20;99.90;;;;;;5053616;28;20880;-60
2022/01/26 03:48:38;;;;;;;74.13;28.53;;;2.20;99.90;;;;;;5054128;28;20879;-59
2022/01/26 03:51:04;;;;;;;74.57;31.10;;;2.20;99.90;;;;;;5053457;28;20545;-58
2022/01/26 03:53:31;;;;;;;68.90;29.53;;;2.20;99.90;;;;;;5053885;28;20502;-60
2022/01/26 03:55:58;;;;;;;70.40;30.20;;;2.20;99.90;;;;;;5053550;28;20444;-60
2022/01/26 03:58:25;;;;;;;70.27;28.90;;;2.20;99.90;;;;;;5053991;28;20448;-60
2022/01/26 04:00:53;;;;;;;66.40;28.80;;;2.20;99.90;;;;;;5054260;28;20459;-59
2022/01/26 04:03:20;;;;;;;76.93;30.30;;;2.30;99.90;;;;;;5057454;28;20546;-60
2022/01/26 04:05:46;;;;;;;69.50;30.53;;;2.30;99.90;;;;;;5057159;28;20859;-60
2022/01/26 04:08:18;;;;;;;79.43;31.53;;;2.30;99.90;;;;;;5055220;28;20459;-60
2022/01/26 04:10:55;;;;;;;71.30;29.77;;;2.20;99.90;;;;;;5053388;28;20574;-60
2022/01/26 04:13:22;;;;;;;68.47;29.07;;;2.30;99.90;;;;;;5053376;28;20483;-59
2022/01/26 04:15:49;;;;;;;70.13;31.33;;;2.30;99.90;;;;;;5053638;28;20451;-59
2022/01/26 04:18:22;;;;;;;70.40;29.33;;;2.40;99.90;;;;;;5053295;28;20518;-58
2022/01/26 04:20:53;;;;;;;72.80;30.63;;;2.30;99.90;;;;;;5053587;28;20464;-57
2022/01/26 04:23:25;;;;;;;75.57;32.53;;;2.30;99.90;;;;;;5053164;28;21001;-60
2022/01/26 04:25:53;;;;;;;82.90;32.47;;;2.40;99.90;;;;;;5052875;28;20483;-58
2022/01/26 04:28:25;;;;;;;82.67;32.83;;;2.30;99.90;;;;;;5053349;28;20498;-58
2022/01/26 04:30:52;;;;;;;93.73;33.67;;;2.30;77.10;;;;;;5053118;28;20483;-59
2022/01/26 04:33:20;;;;;;;95.23;35.80;;;2.30;90.10;;;;;;5052910;28;20468;-59
2022/01/26 04:35:48;;;;;;;92.07;35.37;;;2.20;99.90;;;;;;5052946;28;20574;-59
2022/01/26 04:38:20;;;;;;;96.63;34.90;;;2.20;99.90;;;;;;5052736;28;20452;-59
2022/01/26 04:40:58;;;;;;;95.97;35.47;;;2.20;99.90;;;;;;5053491;28;20475;-60
2022/01/26 04:43:29;;;;;;;95.53;35.33;;;2.20;99.90;;;;;;5053813;28;20965;-61
2022/01/26 04:45:55;;;;;;;100.33;35.93;;;2.20;99.90;;;;;;5052826;28;20869;-60
2022/01/26 04:48:25;;;;;;;90.60;35.23;;;2.10;99.90;;;;;;5052684;28;21172;-60
2022/01/26 04:50:52;;;;;;;104.83;37.30;;;2.20;99.90;;;;;;5053116;28;20519;-60
2022/01/26 04:53:19;;;;;;;101.27;38.33;;;2.30;99.90;;;;;;5054277;28;20834;-60
2022/01/26 04:55:46;;;;;;;95.43;36.57;;;2.30;99.90;;;;;;5053373;28;20456;-60
2022/01/26 04:58:12;;;;;;;110.77;39.20;;;2.30;99.90;;;;;;5053192;28;20448;-59
2022/01/26 05:00:39;;;;;;;104.00;37.57;;;2.30;99.90;;;;;;5055635;28;20486;-60
2022/01/26 05:03:06;;;;;;;104.20;39.23;;;2.40;99.90;;;;;;5055187;28;20467;-59
2022/01/26 05:05:34;;;;;;;105.97;39.60;;;2.40;99.90;;;;;;5052506;28;20452;-62
2022/01/26 05:08:01;;;;;;;101.73;36.13;;;2.40;99.90;;;;;;5052992;28;20836;-59
2022/01/26 05:10:28;;;;;;;103.10;38.13;;;2.30;99.90;;;;;;5052246;28;20491;-58
2022/01/26 05:12:55;;;;;;;109.77;39.87;;;2.40;99.90;;;;;;5052842;28;20448;-60
2022/01/26 05:15:23;;;;;;;114.80;42.43;;;2.30;99.90;;;;;;5052189;28;20820;-59
2022/01/26 05:17:50;;;;;;;108.50;39.03;;;2.30;87.70;;;;;;5052307;28;20459;-60
2022/01/26 05:20:17;;;;;;;111.97;40.90;;;2.30;99.90;;;;;;5052397;28;20868;-60
2022/01/26 05:22:45;;;;;;;117.97;40.57;;;2.20;99.90;;;;;;5052262;28;20498;-60
2022/01/26 05:25:13;;;;;;;113.37;40.10;;;2.20;99.90;;;;;;5052226;28;20821;-59
2022/01/26 05:27:40;;;;;;;118.60;39.40;;;2.00;99.90;;;;;;5051832;28;20448;-61
2022/01/26 05:30:08;;;;;;;116.13;40.27;;;2.00;99.90;;;;;;5052079;28;20492;-60
2022/01/26 05:32:35;;;;;;;118.20;42.57;;;2.00;99.90;;;;;;5051558;28;20468;-60
2022/01/26 05:35:02;;;;;;;108.83;40.40;;;2.10;99.90;;;;;;5052266;28;20497;-61
2022/01/26 05:37:28;;;;;;;118.90;43.27;;;2.10;99.90;;;;;;5051552;28;20452;-60
2022/01/26 05:39:56;;;;;;;108.20;41.07;;;2.20;99.90;;;;;;5052094;28;20444;-61
2022/01/26 05:42:23;;;;;;;107.33;37.50;;;2.20;99.90;;;;;;5051722;28;20986;-60
2022/01/26 05:44:52;;;;;;;118.93;41.23;;;2.20;99.90;;;;;;5051908;28;20527;-59
2022/01/26 05:47:20;;;;;;;122.80;42.37;;;2.20;99.90;;;;;;5051326;28;20452;-60
2022/01/26 05:49:47;;;;;;;111.23;37.37;;;2.20;99.90;;;;;;5052025;28;20525;-59
2022/01/26 05:52:14;;;;;;;118.03;42.30;;;2.20;99.90;;;;;;5056433;28;20467;-64
2022/01/26 05:54:40;;;;;;;104.77;39.10;;;2.20;99.90;;;;;;5065526;28;20880;-60
2022/01/26 05:57:08;;;;;;;114.27;41.13;;;2.20;99.90;;;;;;5071300;28;20454;-60
2022/01/26 05:59:35;;;;;;;121.37;41.57;;;2.30;99.90;;;;;;5070956;28;20447;-61
2022/01/26 06:02:02;;;;;;;113.80;42.40;;;2.30;99.90;;;;;;5071307;28;20470;-60
2022/01/26 06:04:29;;;;;;;105.93;38.97;;;2.30;99.90;;;;;;5070783;28;20451;-60
2022/01/26 06:06:57;;;;;;;113.33;39.40;;;2.30;99.90;;;;;;5071522;28;20871;-61
2022/01/26 06:09:23;;;;;;;115.70;39.97;;;2.30;99.90;;;;;;5071077;28;20555;-61
2022/01/26 06:11:50;;;;;;;113.07;39.33;;;2.40;99.90;;;;;;5071347;28;20866;-61
2022/01/26 06:14:18;;;;;;;102.67;39.70;;;2.30;99.90;;;;;;5070860;28;20455;-61
2022/01/26 06:16:45;;;;;;;111.83;39.23;;;2.30;99.90;;;;;;5072010;28;20450;-60
2022/01/26 06:19:11;;;;;;;101.67;38.10;;;2.20;99.90;;;;;;5071869;28;20443;-61
2022/01/26 06:21:38;;;;;;;97.37;35.37;;;2.30;99.90;;;;;;5071909;28;20874;-58
2022/01/26 06:24:06;;;;;;;109.03;39.03;;;2.30;99.90;;;;;;5071718;28;20953;-60
2022/01/26 06:26:33;;;;;;;110.03;39.23;;;2.30;99.90;;;;;;5070964;28;20447;-64
2022/01/26 06:28:59;;;;;;;103.23;37.80;;;2.20;99.90;;;;;;5070875;28;20934;-61
2022/01/26 06:31:28;;;;;;;109.47;37.37;;;2.20;99.90;;;;;;5071102;28;20510;-61
2022/01/26 06:33:55;;;;;;;110.43;39.63;;;2.30;99.90;;;;;;5070649;28;20459;-61
2022/01/26 06:36:22;;;;;;;110.77;36.23;;;2.30;99.90;;;;;;5070798;28;20451;-61
2022/01/26 06:38:49;;;;;;;107.03;37.93;;;2.20;99.90;;;;;;5070890;28;20447;-60
2022/01/26 06:41:23;;;;;;;101.80;37.23;;;2.20;99.90;;;;;;5070665;28;20553;-61
2022/01/26 06:43:55;;;;;;;109.67;38.63;;;2.20;99.90;;;;;;5070505;28;20473;-62
2022/01/26 06:46:26;;;;;;;107.13;37.67;;;2.20;99.90;;;;;;5071081;28;20447;-61
2022/01/26 06:49:28;;;;;;;112.33;38.33;;;2.10;99.90;;;;;;5071969;28;20523;-62
2022/01/26 06:51:50;;;;;;;102.83;37.80;;;2.10;99.90;;;;;;5074167;28;20505;-62
2022/01/26 06:54:16;;;;;;;106.97;35.20;;;2.10;99.90;;;;;;5074610;28;20447;-62
2022/01/26 06:56:45;;;;;;;111.17;38.90;;;2.00;99.90;;;;;;5074598;28;20447;-62
2022/01/26 06:59:11;;;;;;;114.90;38.73;;;2.00;99.90;;;;;;5074382;28;20447;-63
2022/01/26 07:01:38;;;;;;;104.40;35.17;;;2.00;99.90;;;;;;5074549;28;20455;-62
2022/01/26 07:04:06;;;;;;;107.17;37.00;;;2.00;99.90;;;;;;5073873;28;20447;-59
2022/01/26 07:06:33;;;;;;;113.90;39.00;;;2.00;99.90;;;;;;5073911;28;20485;-60
2022/01/26 07:09:00;;;;;;;119.80;38.93;;;1.90;99.90;;;;;;5074346;28;20789;-59
2022/01/26 07:11:27;;;;;;;95.17;31.77;;;2.00;99.90;;;;;;5074096;28;20482;-66
2022/01/26 07:13:57;;;;;;;105.53;35.50;;;2.00;99.90;;;;;;5074197;28;20500;-67
2022/01/26 07:22:09;;;;;;;107.60;34.67;;;2.00;99.90;;;;;;5073556;28;20564;-64
2022/01/26 07:24:36;;;;;;;100.67;34.20;;;2.00;99.90;;;;;;5073975;28;20531;-63
2022/01/26 07:27:03;;;;;;;106.93;34.47;;;2.00;99.90;;;;;;5074066;28;20439;-63
2022/01/26 07:29:29;;;;;;;107.20;35.00;;;2.00;99.90;;;;;;5082324;28;20455;-65
2022/01/26 07:31:57;;;;;;;101.27;37.27;;;2.00;99.90;;;;;;5084526;28;20582;-65
2022/01/26 07:34:25;;;;;;;103.37;37.33;;;2.10;99.90;;;;;;5077618;28;20459;-62
2022/01/26 07:36:54;;;;;;;105.00;36.77;;;1.90;99.90;;;;;;5074017;28;20446;-62
2022/01/26 07:39:31;;;;;;;104.23;35.23;;;2.00;99.90;;;;;;5073861;28;20455;-61
2022/01/26 07:41:59;;;;;;;110.17;34.90;;;2.00;99.90;;;;;;5074603;28;20520;-62
2022/01/26 07:44:26;;;;;;;105.33;35.87;;;2.00;99.90;;;;;;5073323;28;20458;-62
2022/01/26 07:46:53;;;;;;;108.10;35.60;;;1.90;99.90;;;;;;5073917;28;20508;-62
2022/01/26 07:49:19;;;;;;;105.67;36.50;;;1.90;99.90;;;;;;5074151;28;20447;-62
2022/01/26 07:51:50;;;;;;;99.73;36.70;;;1.90;99.90;;;;;;5073560;28;20487;-61
2022/01/26 07:54:18;;;;;;;112.63;38.23;;;1.90;99.90;;;;;;5073379;28;20455;-62
2022/01/26 07:56:46;;;;;;;116.17;38.07;;;1.90;99.90;;;;;;5073516;28;20460;-63
2022/01/26 07:59:12;;;;;;;107.10;36.77;;;1.90;99.90;;;;;;5073373;28;20451;-61
2022/01/26 08:01:39;;;;;;;106.43;36.13;;;2.00;99.90;;;;;;5072877;28;20475;-62
2022/01/26 08:04:06;;;;;;;108.73;36.20;;;2.00;99.90;;;;;;5074017;28;20500;-66
2022/01/26 08:06:32;;;;;;;112.77;37.53;;;2.00;99.90;;;;;;5075741;28;20454;-66
2022/01/26 08:09:01;;;;;;;110.93;35.03;;;2.00;99.90;;;;;;5074261;28;20447;-64
2022/01/26 08:11:28;;;;;;;103.10;35.93;;;1.90;99.90;;;;;;5073100;28;20494;-64
2022/01/26 08:13:54;;;;;;;93.90;33.27;;;1.90;99.90;;;;;;5073445;28;20494;-63
2022/01/26 08:16:21;;;;;;;100.60;34.43;;;1.90;99.90;;;;;;5076950;28;20478;-61
2022/01/26 08:18:47;;;;;;;108.10;35.83;;;1.80;99.90;;;;;;5076752;28;20470;-61
2022/01/26 08:21:15;;;;;;;109.40;35.63;;;1.70;99.90;;;;;;5074478;28;20510;-60
2022/01/26 08:23:44;;;;;;;115.70;36.90;;;1.70;99.90;;;;;;5072905;28;20469;-64
2022/01/26 08:26:13;;;;;;;112.67;36.67;;;1.70;99.90;;;;;;5073101;28;20454;-64
2022/01/26 08:28:42;;;;;;;114.77;35.97;;;1.60;99.90;;;;;;5072717;28;20865;-66
2022/01/26 08:31:12;;;;;;;110.67;36.70;;;1.60;99.90;;;;;;5072771;28;20577;-64
2022/01/26 08:33:39;;;;;;;115.73;38.13;;;1.60;99.90;;;;;;5072344;28;21079;-64
2022/01/26 08:36:06;;;;;;;115.27;35.57;;;1.50;99.90;;;;;;5073797;28;20926;-62
2022/01/26 08:38:32;;;;;;;114.27;37.87;;;1.50;99.90;;;;;;5073394;28;20454;-65
2022/01/26 08:40:59;;;;;;;115.90;37.27;;;1.50;99.90;;;;;;5072991;28;20474;-65
2022/01/26 08:43:28;;;;;;;122.97;38.70;;;1.60;99.90;;;;;;5072739;28;21144;-63
2022/01/26 08:45:54;;;;;;;108.47;35.50;;;1.60;99.90;;;;;;5072791;28;20508;-65
2022/01/26 08:48:21;;;;;;;110.93;35.93;;;1.70;99.90;;;;;;5073225;28;20447;-62
2022/01/26 08:50:48;;;;;;;110.97;37.30;;;1.80;99.90;;;;;;5072229;28;20487;-62
2022/01/26 08:53:15;;;;;;;108.70;34.33;;;1.70;99.90;;;;;;5072082;28;20444;-61
2022/01/26 08:55:42;;;;;;;110.80;35.20;;;1.80;99.90;;;;;;5073344;28;20504;-61
2022/01/26 08:58:08;;;;;;;99.03;32.23;;;1.70;99.90;;;;;;5072422;28;20458;-64
2022/01/26 09:00:37;;;;;;;110.70;33.37;;;1.80;99.90;;;;;;5072775;28;20443;-63
2022/01/26 09:03:04;;;;;;;101.10;34.17;;;1.70;99.90;;;;;;5071719;28;20482;-63
2022/01/26 09:05:31;;;;;;;112.77;36.03;;;1.70;99.90;;;;;;5072076;28;20936;-63
2022/01/26 09:07:59;;;;;;;94.13;30.63;;;1.70;99.90;;;;;;5071807;28;20447;-59
2022/01/26 09:10:28;;;;;;;109.37;32.80;;;1.80;99.90;;;;;;5071830;28;20934;-60
2022/01/26 09:12:55;;;;;;;114.30;34.57;;;1.80;99.90;;;;;;5070947;28;20975;-61
2022/01/26 09:15:27;;;;;;;105.43;32.37;;;1.80;99.90;;;;;;5071788;28;20534;-62
2022/01/26 09:17:55;;;;;;;103.17;33.60;;;1.70;99.90;;;;;;5071720;28;20542;-62
2022/01/26 09:20:22;;;;;;;103.70;34.63;;;1.70;99.90;;;;;;5071801;28;20925;-65
2022/01/26 09:22:49;;;;;;;111.37;33.50;;;1.80;99.90;;;;;;5071916;28;20442;-66
2022/01/26 09:25:16;;;;;;;106.83;33.97;;;1.80;99.90;;;;;;5071278;28;20501;-66
2022/01/26 09:27:42;;;;;;;114.80;35.80;;;1.80;99.90;;;;;;5072084;28;20523;-61
2022/01/26 09:30:10;;;;;;;101.73;31.70;;;1.80;99.90;;;;;;5071241;28;20451;-61
2022/01/26 09:32:37;;;;;;;106.07;34.03;;;1.90;99.90;;;;;;5071355;28;20495;-61
2022/01/26 09:35:08;;;;;;;92.90;31.27;;;2.00;99.90;;;;;;5071107;28;20439;-61
2022/01/26 09:37:34;;;;;;;108.67;31.90;;;2.00;99.90;;;;;;5071092;28;20470;-61
2022/01/26 09:40:01;;;;;;;107.03;34.07;;;2.00;1.00;;;;;;5071282;28;20503;-61
2022/01/26 09:42:28;;;;;;;108.10;34.60;;;2.00;99.90;;;;;;5071378;28;20463;-60
2022/01/26 09:44:55;;;;;;;101.00;31.87;;;2.00;1.00;;;;;;5071338;28;20443;-61
2022/01/26 09:47:25;;;;;;;109.90;34.47;;;2.00;1.00;;;;;;5070809;28;20454;-60
2022/01/26 09:49:52;;;;;;;107.73;33.13;;;2.10;1.00;;;;;;5071401;28;20873;-61
2022/01/26 09:52:27;;;;;;;104.20;30.90;;;2.10;1.00;;;;;;5071197;28;20486;-61
2022/01/26 09:54:59;;;;;;;107.53;32.10;;;2.10;1.00;;;;;;5071239;28;20875;-60
2022/01/26 09:57:27;;;;;;;104.83;30.53;;;2.10;1.00;;;;;;5070838;28;20447;-61
2022/01/26 09:59:54;;;;;;;104.20;33.10;;;2.10;1.00;;;;;;5071542;28;20452;-60
2022/01/26 10:02:23;;;;;;;106.53;34.17;;;2.10;1.00;;;;;;5071080;28;20463;-59
2022/01/26 10:04:56;;;;;;;109.27;32.57;;;2.10;1.00;;;;;;5070867;28;20447;-62
2022/01/26 10:07:28;;;;;;;114.70;35.40;;;2.10;1.00;;;;;;5070621;28;20502;-58
2022/01/26 10:15:28;;;;;;;121.97;35.40;;;2.10;1.00;;;;;;5070656;28;20430;-59
2022/01/26 10:18:05;;;;;;;116.03;34.93;;;2.20;1.00;;;;;;5070340;28;20494;-59
2022/01/26 10:20:42;;;;;;;130.20;40.33;;;2.20;1.00;;;;;;5071041;28;20456;-61
2022/01/26 10:23:13;;;;;;;117.73;35.00;;;2.10;1.00;;;;;;5071051;28;20468;-57
2022/01/26 10:25:41;;;;;;;120.00;34.30;;;2.10;1.00;;;;;;5074224;28;20460;-60
2022/01/26 10:28:11;;;;;;;113.80;37.27;;;2.20;1.00;;;;;;5074509;28;20925;-58
2022/01/26 10:30:42;;;;;;;115.03;34.47;;;2.10;1.00;;;;;;5074612;28;20482;-56
2022/01/26 10:33:09;;;;;;;110.83;37.80;;;2.20;1.00;;;;;;5074837;28;20482;-66
2022/01/26 10:35:36;;;;;;;111.80;35.87;;;2.10;1.00;;;;;;5075048;28;20478;-63
2022/01/26 10:38:02;;;;;;;113.33;34.17;;;2.10;1.00;;;;;;5074633;28;20884;-66
2022/01/26 10:40:31;;;;;;;118.80;36.00;;;2.20;1.00;;;;;;5074741;28;20447;-64
2022/01/26 10:43:03;;;;;;;105.73;35.00;;;2.20;1.00;;;;;;5074703;28;20865;-60
2022/01/26 10:45:34;;;;;;;107.20;32.60;;;2.30;1.00;;;;;;5076069;28;20431;-65
2022/01/26 10:48:14;;;;;;;108.53;32.13;;;2.30;1.00;;;;;;5076566;28;20466;-65
2022/01/26 10:51:19;;;;;;;106.27;32.93;;;2.30;1.00;;;;;;5075549;28;20520;-61
2022/01/26 10:53:40;;;;;;;113.80;33.53;;;2.40;1.00;;;;;;5074325;28;20453;-61
2022/01/26 10:56:09;;;;;;;107.43;33.93;;;2.40;1.00;;;;;;5074716;28;20933;-61
2022/01/26 10:58:36;;;;;;;102.30;31.13;;;2.40;1.00;;;;;;5075054;28;20512;-61
2022/01/26 11:01:04;;;;;;;104.93;33.60;;;2.40;1.00;;;;;;5079624;28;20462;-63
2022/01/26 11:03:31;;;;;;;110.50;34.87;;;2.40;1.00;;;;;;5084917;28;20435;-63
2022/01/26 11:05:58;;;;;;;104.27;35.10;;;2.40;1.00;;;;;;5082462;28;20443;-62
2022/01/26 11:08:26;;;;;;;104.07;33.17;;;2.40;1.00;;;;;;5074965;28;20447;-63
2022/01/26 11:10:53;;;;;;;90.87;27.70;;;2.50;1.00;;;;;;5074245;28;20467;-59
2022/01/26 11:13:31;;;;;;;106.27;33.77;;;2.50;1.00;;;;;;5074400;28;20475;-59
2022/01/26 11:16:08;;;;;;;93.43;31.80;;;2.50;1.00;;;;;;5073722;28;20447;-60
2022/01/26 11:18:49;;;;;;;102.97;31.97;;;2.50;1.00;;;;;;5074224;28;20534;-61
2022/01/26 11:21:30;;;;;;;105.40;31.33;;;2.50;1.00;;;;;;5073896;28;20475;-60
2022/01/26 11:24:06;;;;;;;82.57;28.53;;;2.50;1.00;;;;;;5074001;28;20509;-60
2022/01/26 11:26:33;;;;;;;97.73;32.40;;;2.50;1.00;;;;;;5073899;28;20447;-59
2022/01/26 11:29:01;;;;;;;97.57;33.67;;;2.50;1.00;;;;;;5074540;28;20447;-61
2022/01/26 11:31:32;;;;;;;104.30;33.83;;;2.40;1.00;;;;;;5076264;28;20897;-60
2022/01/26 11:33:59;;;;;;;98.07;32.60;;;2.50;1.00;;;;;;5077372;28;20482;-64
2022/01/26 11:36:30;;;;;;;104.03;33.80;;;2.40;1.00;;;;;;5073705;28;20447;-63
2022/01/26 11:42:15;;;;;;;95.50;26.83;;;2.50;1.00;;;;;;5074313;28;20458;-63
2022/01/26 11:42:18;;;;;;;99.23;33.10;;;2.50;1.00;;;;;;5075404;28;20542;-63
2022/01/26 11:45:07;;;;;;;88.90;28.07;;;2.40;1.00;;;;;;5076628;28;20439;-62
2022/01/26 11:47:36;;;;;;;99.37;30.03;;;2.40;1.00;;;;;;5074633;28;21016;-63
2022/01/26 11:50:07;;;;;;;96.33;32.10;;;2.50;1.00;;;;;;5073766;28;20956;-63
2022/01/26 11:52:38;;;;;;;102.80;31.90;;;2.40;1.00;;;;;;5073953;28;20479;-63
2022/01/26 11:55:09;;;;;;;103.87;32.23;;;2.50;1.00;;;;;;5073510;28;20443;-60
2022/01/26 11:57:43;;;;;;;95.67;32.47;;;2.50;1.00;;;;;;5073840;28;20534;-60
2022/01/26 12:00:17;;;;;;;109.37;32.03;;;2.60;1.00;;;;;;5073379;28;20537;-60
2022/01/26 12:02:53;;;;;;;102.83;32.67;;;2.60;1.00;;;;;;5073660;28;20477;-60
2022/01/26 12:05:22;;;;;;;106.57;33.47;;;2.70;1.00;;;;;;5073381;28;20868;-64
2022/01/26 12:07:51;;;;;;;96.57;31.07;;;2.70;1.00;;;;;;5073744;28;20456;-64
2022/01/26 12:10:25;;;;;;;99.63;31.13;;;2.80;1.00;;;;;;5073144;28;20451;-63
2022/01/26 12:13:00;;;;;;;98.60;29.57;;;2.70;1.00;;;;;;5073507;28;20228;-66
2022/01/26 12:15:31;;;;;;;95.73;31.17;;;2.70;1.00;;;;;;5074125;28;20461;-64
2022/01/26 12:18:13;;;;;;;97.83;30.93;;;2.60;1.00;;;;;;5073165;28;20455;-64
2022/01/26 12:32:20;;;;;;;86.70;28.93;;;2.70;1.00;;;;;;5073164;28;21084;-59
2022/01/26 12:34:54;;;;;;;94.07;32.10;;;2.70;1.00;;;;;;5073365;28;20471;-60
2022/01/26 12:37:35;;;;;;;90.90;29.07;;;2.60;1.00;;;;;;5073656;28;20450;-59
2022/01/26 12:43:06;;;;;;;76.37;26.37;;;2.70;1.00;;;;;;5073278;28;20444;-58
2022/01/26 12:45:33;;;;;;;87.83;27.10;;;2.60;1.00;;;;;;5072196;28;20451;-61
2022/01/26 12:48:01;;;;;;;88.40;29.77;;;2.70;1.00;;;;;;5071785;28;20452;-60
2022/01/26 12:50:28;;;;;;;89.93;28.50;;;2.70;1.00;;;;;;5072222;28;20447;-63
2022/01/26 12:52:57;;;;;;;96.63;30.23;;;2.70;1.00;;;;;;5072924;28;20487;-61
2022/01/26 12:55:38;;;;;;;93.17;29.20;;;2.70;1.00;;;;;;5072265;28;20477;-62
2022/01/26 12:58:05;;;;;;;91.63;30.90;;;2.70;1.00;;;;;;5072607;28;20443;-61
2022/01/26 13:00:40;;;;;;;86.60;29.07;;;2.80;1.00;;;;;;5072806;28;20455;-61
2022/01/26 13:03:13;;;;;;;87.43;29.23;;;2.80;1.00;;;;;;5072774;28;20447;-62
2022/01/26 13:05:40;;;;;;;85.50;28.10;;;2.80;1.00;;;;;;5072376;28;20443;-61
2022/01/26 13:08:08;;;;;;;74.77;25.17;;;2.80;1.00;;;;;;5072063;28;20443;-60
2022/01/26 13:10:35;;;;;;;83.87;27.47;;;2.80;1.00;;;;;;5072245;28;20453;-61
2022/01/26 13:13:18;;;;;;;79.93;26.77;;;2.80;1.00;;;;;;5071334;28;20485;-63
2022/01/26 13:15:54;;;;;;;79.13;28.27;;;2.70;1.00;;;;;;5072049;28;20455;-62
2022/01/26 13:18:46;;;;;;;73.73;27.20;;;2.70;1.00;;;;;;5072006;28;20451;-64
2022/01/26 13:21:40;;;;;;;92.63;29.50;;;2.70;1.00;;;;;;5071955;28;20561;-62
2022/01/26 13:24:27;;;;;;;79.07;27.27;;;2.60;1.00;;;;;;5071313;28;20545;-63
2022/01/26 13:27:02;;;;;;;70.10;24.07;;;2.70;1.00;;;;;;5071687;28;20813;-60
2022/01/26 13:29:40;;;;;;;71.87;27.03;;;2.70;1.00;;;;;;5071365;28;21032;-60
2022/01/26 13:35:13;;;;;;;80.43;26.40;;;2.60;1.00;;;;;;5037179;28;20794;-60
2022/01/26 13:37:50;;;;;;;77.00;27.27;;;2.50;1.00;;;;;;5071559;28;20917;-64
2022/01/26 13:40:30;;;;;;;74.27;26.27;;;2.60;1.00;;;;;;5071758;28;20470;-65
2022/01/26 13:43:36;;;;;;;73.50;23.80;;;2.50;1.00;;;;;;5071960;28;20443;-59
2022/01/26 13:46:39;;;;;;;73.50;26.43;;;2.60;1.00;;;;;;5071000;28;20443;-60
2022/01/26 13:49:36;;;;;;;73.67;24.60;;;2.60;1.00;;;;;;5071388;28;20453;-57
2022/01/26 13:52:19;;;;;;;76.10;24.57;;;2.70;1.00;;;;;;5071123;28;21054;-60
2022/01/26 13:55:15;;;;;;;79.00;25.73;;;2.70;1.00;;;;;;5071237;28;20494;-60
2022/01/26 13:58:03;;;;;;;70.17;24.40;;;2.70;1.00;;;;;;5071350;28;20447;-59
2022/01/26 14:00:36;;;;;;;75.07;24.87;;;2.70;1.00;;;;;;5071418;28;20451;-62
2022/01/26 14:03:05;;;;;;;71.83;25.50;;;2.70;1.00;;;;;;5071183;28;20451;-60
2022/01/26 14:05:32;;;;;;;70.00;23.63;;;2.70;1.00;;;;;;5071187;28;20459;-62
2022/01/26 14:08:00;;;;;;;66.03;23.33;;;2.70;1.00;;;;;;5071073;28;20456;-59
2022/01/26 14:10:27;;;;;;;80.33;25.37;;;2.70;1.00;;;;;;5071678;28;20493;-61
2022/01/26 14:12:54;;;;;;;64.13;23.13;;;2.70;1.00;;;;;;5071195;28;20479;-60
2022/01/26 14:15:25;;;;;;;69.00;23.73;;;2.80;1.00;;;;;;5070806;28;20443;-62